Time;durP1;ratioP1;P1;durP2;ratioP2;P2;SDS_P1;SDS_P2;PMS_P1;PMS_P2;Temp;Humidity;BMP_temperature;BMP_pressure;BME280_temperature;BME280_humidity;BME280_pressure;Samples;Min_cycle;Max_cycle;Signal;HPM_P1;HPM_P2
2022/11/20 00:00:50;;;;;;;24.25;16.38;;;5.20;99.90;;;;;;5056702;28;20029;-64
2022/11/20 00:03:17;;;;;;;24.48;16.35;;;5.30;99.90;;;;;;5056606;28;20033;-64
2022/11/20 00:05:43;;;;;;;22.33;15.57;;;5.40;99.90;;;;;;5057157;28;20135;-64
2022/11/20 00:08:09;;;;;;;22.08;15.60;;;5.40;99.90;;;;;;5056501;28;20121;-62
2022/11/20 00:10:39;;;;;;;23.30;15.90;;;5.20;99.90;;;;;;5056414;28;20048;-64
2022/11/20 00:13:05;;;;;;;22.65;16.60;;;5.20;99.90;;;;;;5057074;28;20049;-61
2022/11/20 00:15:31;;;;;;;24.00;17.05;;;5.30;99.90;;;;;;5057169;28;20360;-62
2022/11/20 00:17:57;;;;;;;24.65;16.40;;;5.50;99.90;;;;;;5039612;28;20065;-61
2022/11/20 00:20:23;;;;;;;22.58;16.08;;;5.60;99.90;;;;;;5056383;28;20079;-62
2022/11/20 00:22:49;;;;;;;22.95;15.88;;;5.60;99.90;;;;;;5056918;28;20034;-62
2022/11/20 00:25:15;;;;;;;21.92;15.77;;;5.60;99.90;;;;;;5056925;28;20025;-62
2022/11/20 00:27:41;;;;;;;22.98;15.98;;;5.40;99.90;;;;;;5039530;28;20033;-62
2022/11/20 00:30:07;;;;;;;22.92;14.88;;;5.40;99.90;;;;;;5056846;28;20029;-62
2022/11/20 00:32:33;;;;;;;22.35;15.07;;;5.50;99.90;;;;;;5056097;28;20028;-62
2022/11/20 00:34:59;;;;;;;20.20;15.07;;;5.50;99.90;;;;;;5023046;28;20044;-62
2022/11/20 00:37:25;;;;;;;21.88;15.45;;;5.40;99.90;;;;;;5056000;28;20044;-62
2022/11/20 00:39:51;;;;;;;21.75;15.82;;;5.40;99.90;;;;;;5056316;28;20089;-63
2022/11/20 00:42:17;;;;;;;21.83;15.70;;;5.40;99.90;;;;;;5039506;28;20033;-62
2022/11/20 00:44:43;;;;;;;21.10;15.30;;;5.60;99.90;;;;;;5039538;28;20124;-62
2022/11/20 00:47:08;;;;;;;21.90;15.35;;;5.50;99.90;;;;;;5056092;28;20033;-63
2022/11/20 00:49:34;;;;;;;23.83;16.20;;;5.60;99.90;;;;;;5056544;28;20029;-62
2022/11/20 00:52:00;;;;;;;22.60;15.52;;;5.70;99.90;;;;;;5039779;28;20033;-62
2022/11/20 00:54:26;;;;;;;23.90;16.08;;;5.50;99.90;;;;;;5056010;28;20021;-62
2022/11/20 00:56:55;;;;;;;23.23;16.08;;;5.50;99.90;;;;;;5056183;28;20029;-62
2022/11/20 00:59:20;;;;;;;21.42;14.63;;;5.60;99.90;;;;;;5039172;28;20047;-63
2022/11/20 01:01:46;;;;;;;21.52;15.48;;;5.60;99.90;;;;;;5056474;28;20025;-62
2022/11/20 01:04:12;;;;;;;20.33;15.35;;;5.70;99.90;;;;;;5058499;28;20049;-63
2022/11/20 01:06:40;;;;;;;26.30;15.95;;;5.70;99.90;;;;;;5043327;28;20029;-62
2022/11/20 01:09:09;;;;;;;23.35;16.20;;;5.70;99.90;;;;;;5060512;28;20036;-62
2022/11/20 01:11:38;;;;;;;20.52;15.10;;;5.70;99.90;;;;;;5060619;28;20055;-62
2022/11/20 01:14:06;;;;;;;24.08;15.82;;;5.80;99.90;;;;;;5060457;28;20124;-63
2022/11/20 01:16:35;;;;;;;23.50;15.63;;;5.70;99.90;;;;;;5060491;28;20035;-62
2022/11/20 01:19:03;;;;;;;23.33;15.77;;;5.60;99.90;;;;;;5059733;28;20048;-63
2022/11/20 01:21:31;;;;;;;20.85;15.43;;;5.50;99.90;;;;;;5059875;28;20055;-63
2022/11/20 01:23:58;;;;;;;22.30;15.52;;;5.50;99.90;;;;;;5059589;28;20423;-64
2022/11/20 01:26:27;;;;;;;22.13;15.52;;;5.50;99.90;;;;;;5059494;28;20067;-63
2022/11/20 01:28:54;;;;;;;22.85;15.65;;;5.50;99.90;;;;;;5060340;28;20052;-62
2022/11/20 01:31:27;;;;;;;22.85;15.98;;;5.60;99.90;;;;;;5059396;28;20071;-63
2022/11/20 01:33:56;;;;;;;21.90;15.40;;;5.70;99.90;;;;;;5060254;28;20456;-62
2022/11/20 01:36:24;;;;;;;20.58;14.70;;;5.60;99.90;;;;;;5060055;28;20032;-63
2022/11/20 01:38:58;;;;;;;22.42;15.45;;;5.60;99.90;;;;;;5059974;28;20021;-62
2022/11/20 01:44:14;;;;;;;22.08;14.75;;;5.30;99.90;;;;;;5059265;28;20309;-62
2022/11/20 01:46:51;;;;;;;22.08;15.25;;;5.30;99.90;;;;;;5059955;28;20029;-63
2022/11/20 01:49:23;;;;;;;23.88;16.35;;;5.20;99.90;;;;;;5058958;28;20044;-63
2022/11/20 01:51:58;;;;;;;25.05;15.77;;;5.10;99.90;;;;;;5059210;28;20041;-63
2022/11/20 01:54:52;;;;;;;24.50;16.45;;;5.00;99.90;;;;;;5059017;28;20392;-62
2022/11/20 01:57:20;;;;;;;23.67;15.45;;;5.00;99.90;;;;;;5058762;28;20072;-62
2022/11/20 01:59:54;;;;;;;21.65;15.70;;;4.90;99.90;;;;;;5058827;28;20025;-63
2022/11/20 02:02:21;;;;;;;24.52;16.42;;;5.00;99.90;;;;;;5059554;28;20029;-61
2022/11/20 02:04:49;;;;;;;25.98;17.05;;;5.10;99.90;;;;;;5059202;28;20106;-61
2022/11/20 02:07:15;;;;;;;26.67;16.52;;;5.20;99.90;;;;;;5059879;28;20048;-61
2022/11/20 02:09:41;;;;;;;22.90;16.05;;;5.30;99.90;;;;;;5058876;28;20257;-61
2022/11/20 02:13:42;;;;;;;23.30;16.42;;;5.30;99.90;;;;;;5042050;28;20035;-61
2022/11/20 02:14:52;;;;;;;24.02;16.48;;;5.20;99.90;;;;;;5058977;28;20330;-61
2022/11/20 02:17:18;;;;;;;24.35;16.13;;;5.20;99.90;;;;;;5059471;28;20052;-61
2022/11/20 02:19:44;;;;;;;24.33;16.73;;;5.30;99.90;;;;;;5041753;28;20138;-62
2022/11/20 02:22:38;;;;;;;21.65;15.98;;;5.30;99.90;;;;;;5059055;28;20028;-62
2022/11/20 02:25:06;;;;;;;24.45;16.20;;;5.30;99.90;;;;;;5059505;28;20043;-62
2022/11/20 02:27:31;;;;;;;26.38;16.98;;;5.30;99.90;;;;;;5058857;28;20052;-62
2022/11/20 02:30:02;;;;;;;23.15;16.08;;;5.30;99.90;;;;;;5059089;28;20067;-61
2022/11/20 02:32:33;;;;;;;25.10;16.95;;;5.30;99.90;;;;;;5059170;28;20400;-62
2022/11/20 02:35:08;;;;;;;24.67;17.03;;;5.30;99.90;;;;;;5058246;28;20051;-61
2022/11/20 02:37:38;;;;;;;25.60;16.10;;;5.20;99.90;;;;;;5059144;28;20032;-62
2022/11/20 02:40:05;;;;;;;28.30;16.55;;;5.20;99.90;;;;;;5058898;28;20039;-61
2022/11/20 02:42:30;;;;;;;24.58;16.20;;;5.30;99.90;;;;;;5059351;28;20380;-61
2022/11/20 02:44:56;;;;;;;25.38;16.30;;;5.30;99.90;;;;;;5041423;28;20053;-61
2022/11/20 02:47:22;;;;;;;26.05;16.70;;;5.00;99.90;;;;;;5059099;28;20048;-61
2022/11/20 02:49:48;;;;;;;23.30;16.55;;;4.80;99.90;;;;;;5058568;28;20108;-61
2022/11/20 02:52:13;;;;;;;27.27;16.73;;;4.70;99.90;;;;;;5058576;28;20029;-61
2022/11/20 02:54:39;;;;;;;26.60;16.88;;;4.70;99.90;;;;;;5058653;28;20025;-61
2022/11/20 02:57:05;;;;;;;25.67;17.83;;;4.60;99.90;;;;;;5024700;28;20033;-61
2022/11/20 02:59:31;;;;;;;24.40;16.63;;;4.60;99.90;;;;;;5041114;28;20033;-61
2022/11/20 03:01:56;;;;;;;26.77;17.23;;;4.70;99.90;;;;;;5058579;28;20032;-61
2022/11/20 03:04:22;;;;;;;25.38;16.70;;;4.60;99.90;;;;;;5041174;28;20045;-61
2022/11/20 03:06:48;;;;;;;24.67;16.27;;;4.40;99.90;;;;;;5057758;28;20020;-60
2022/11/20 03:09:14;;;;;;;25.88;17.33;;;4.40;99.90;;;;;;5041054;28;20036;-60
2022/11/20 03:11:40;;;;;;;27.60;17.65;;;4.40;99.90;;;;;;5058274;28;20163;-60
2022/11/20 03:14:06;;;;;;;28.65;17.58;;;4.40;99.90;;;;;;5058165;28;20048;-61
2022/11/20 03:16:32;;;;;;;26.70;18.00;;;4.50;99.90;;;;;;5057549;28;20090;-61
2022/11/20 03:18:58;;;;;;;26.55;17.27;;;4.60;99.90;;;;;;5058071;28;20400;-61
2022/11/20 03:21:24;;;;;;;25.30;16.55;;;4.50;99.90;;;;;;5057299;28;20025;-61
2022/11/20 03:23:50;;;;;;;32.58;17.20;;;4.50;99.90;;;;;;5057910;28;20033;-61
2022/11/20 03:26:19;;;;;;;27.30;18.58;;;4.50;99.90;;;;;;5040029;28;20309;-61
2022/11/20 03:28:53;;;;;;;24.92;17.00;;;4.40;99.90;;;;;;5058024;28;20423;-61
2022/11/20 03:31:28;;;;;;;28.45;17.13;;;4.50;99.90;;;;;;5057230;28;20126;-61
2022/11/20 03:33:54;;;;;;;27.15;17.88;;;4.50;99.90;;;;;;5058135;28;20278;-61
2022/11/20 03:36:20;;;;;;;25.95;17.38;;;4.60;99.90;;;;;;5057733;28;20423;-60
2022/11/20 03:38:47;;;;;;;26.58;17.92;;;4.80;99.90;;;;;;5056852;28;20086;-61
2022/11/20 03:41:25;;;;;;;31.80;18.77;;;5.00;99.90;;;;;;5057668;28;20090;-60
2022/11/20 03:43:59;;;;;;;34.17;19.92;;;4.90;99.90;;;;;;5056963;28;20095;-61
2022/11/20 03:46:26;;;;;;;31.85;19.65;;;4.80;99.90;;;;;;5057708;28;20079;-60
2022/11/20 03:48:52;;;;;;;35.92;20.77;;;4.90;99.90;;;;;;5057594;28;20041;-59
2022/11/20 03:51:21;;;;;;;39.97;22.83;;;4.70;99.90;;;;;;5040238;28;20048;-59
2022/11/20 03:53:48;;;;;;;39.03;22.45;;;4.60;99.90;;;;;;5056673;28;20103;-59
2022/11/20 03:56:16;;;;;;;38.55;22.48;;;4.50;99.90;;;;;;5040094;28;20430;-60
2022/11/20 03:58:43;;;;;;;40.22;24.23;;;4.50;99.90;;;;;;5057281;28;20412;-59
2022/11/20 04:01:12;;;;;;;43.35;24.08;;;4.50;99.90;;;;;;5056562;28;20123;-59
2022/11/20 04:03:40;;;;;;;43.08;23.70;;;4.60;99.90;;;;;;5057094;28;20400;-59
2022/11/20 04:06:08;;;;;;;40.03;23.90;;;4.70;99.90;;;;;;5057515;28;20036;-59
2022/11/20 04:08:34;;;;;;;39.88;23.92;;;4.70;99.90;;;;;;5056588;28;20123;-61
2022/11/20 04:11:22;;;;;;;39.80;22.60;;;4.80;99.90;;;;;;5039859;28;20086;-60
2022/11/20 04:13:51;;;;;;;44.38;24.15;;;4.70;99.90;;;;;;5056173;28;20086;-60
2022/11/20 04:16:18;;;;;;;38.70;23.27;;;4.80;99.90;;;;;;5057393;28;20040;-60
2022/11/20 04:18:44;;;;;;;39.50;23.95;;;5.00;99.90;;;;;;5056162;28;20029;-60
2022/11/20 04:21:10;;;;;;;44.08;24.92;;;5.00;99.90;;;;;;5056266;28;20044;-60
2022/11/20 04:23:36;;;;;;;41.42;24.30;;;5.10;99.90;;;;;;5057081;28;20032;-60
2022/11/20 04:26:07;;;;;;;40.45;23.67;;;5.20;99.90;;;;;;5056918;28;20282;-60
2022/11/20 04:28:33;;;;;;;43.03;24.63;;;5.00;99.90;;;;;;5057029;28;20041;-60
2022/11/20 04:31:14;;;;;;;41.55;23.70;;;5.10;99.90;;;;;;5056275;28;20401;-60
2022/11/20 04:33:40;;;;;;;43.28;24.80;;;4.80;99.90;;;;;;5056902;28;20112;-60
2022/11/20 04:36:15;;;;;;;44.17;24.95;;;4.70;99.90;;;;;;5056089;28;20145;-60
2022/11/20 04:38:40;;;;;;;41.28;23.92;;;5.00;99.90;;;;;;5055042;28;20033;-60
2022/11/20 04:41:10;;;;;;;37.80;23.30;;;5.00;99.90;;;;;;5056964;28;20431;-60
2022/11/20 04:43:36;;;;;;;40.60;23.15;;;4.90;99.90;;;;;;5056996;28;20191;-60
2022/11/20 04:46:02;;;;;;;40.63;23.73;;;4.70;99.90;;;;;;5039459;28;20115;-60
2022/11/20 04:48:29;;;;;;;40.15;24.60;;;4.60;99.90;;;;;;5056276;28;20041;-60
2022/11/20 04:50:55;;;;;;;42.15;24.80;;;4.60;99.90;;;;;;5055948;28;20041;-60
2022/11/20 04:53:22;;;;;;;43.08;24.45;;;4.70;99.90;;;;;;5056536;28;20175;-60
2022/11/20 04:55:48;;;;;;;43.40;24.02;;;4.80;99.90;;;;;;5056958;28;20036;-60
2022/11/20 04:58:14;;;;;;;43.80;25.25;;;4.90;99.90;;;;;;5056438;28;20044;-60
2022/11/20 05:00:40;;;;;;;41.47;24.38;;;5.00;99.90;;;;;;5056544;28;20037;-60
2022/11/20 05:03:06;;;;;;;40.45;24.02;;;5.00;99.90;;;;;;5056588;28;20021;-60
2022/11/20 05:05:34;;;;;;;43.88;25.70;;;5.00;99.90;;;;;;5038963;28;20052;-60
2022/11/20 05:07:59;;;;;;;44.63;24.23;;;5.20;99.90;;;;;;5056505;28;20103;-60
2022/11/20 05:10:26;;;;;;;43.85;25.27;;;5.10;99.90;;;;;;5056577;28;20075;-60
2022/11/20 05:12:52;;;;;;;38.17;24.30;;;5.20;99.90;;;;;;5056621;28;20033;-61
2022/11/20 05:15:18;;;;;;;43.58;26.00;;;5.20;99.90;;;;;;5039239;28;20033;-60
2022/11/20 05:17:51;;;;;;;44.25;26.08;;;5.10;99.90;;;;;;5056180;28;20033;-60
2022/11/20 05:20:17;;;;;;;42.85;24.75;;;5.30;99.90;;;;;;5056339;28;20116;-60
2022/11/20 05:22:43;;;;;;;41.20;24.48;;;5.30;99.90;;;;;;5055610;28;20040;-60
2022/11/20 05:25:10;;;;;;;43.50;24.90;;;5.30;99.90;;;;;;5056302;28;20029;-60
2022/11/20 05:27:36;;;;;;;45.35;24.63;;;5.40;99.90;;;;;;5055804;28;20082;-60
2022/11/20 05:30:03;;;;;;;46.30;26.02;;;5.40;99.90;;;;;;5056577;28;20044;-60
2022/11/20 05:32:29;;;;;;;44.42;25.50;;;5.50;99.90;;;;;;5056406;28;20112;-60
2022/11/20 05:34:55;;;;;;;43.58;24.95;;;5.50;99.90;;;;;;5056299;28;20116;-60
2022/11/20 05:37:21;;;;;;;43.58;25.35;;;5.50;99.90;;;;;;5056169;28;20041;-60
2022/11/20 05:39:47;;;;;;;47.97;25.42;;;5.30;99.90;;;;;;5056151;28;20052;-60
2022/11/20 05:45:08;;;;;;;44.35;25.23;;;5.40;99.90;;;;;;5051080;28;20041;-60
2022/11/20 05:47:34;;;;;;;45.45;24.90;;;5.40;99.90;;;;;;5038868;28;20389;-60
2022/11/20 05:50:01;;;;;;;46.75;24.85;;;5.30;99.90;;;;;;5057601;28;20377;-60
2022/11/20 05:52:30;;;;;;;43.47;25.27;;;5.30;99.90;;;;;;5059060;28;20089;-60
2022/11/20 05:54:56;;;;;;;43.97;25.08;;;5.20;99.90;;;;;;5059022;28;20096;-60
2022/11/20 05:57:22;;;;;;;44.25;25.38;;;5.30;99.90;;;;;;5058909;28;20025;-60
2022/11/20 05:59:48;;;;;;;42.60;23.98;;;5.20;99.90;;;;;;5042445;28;20027;-60
2022/11/20 06:02:14;;;;;;;47.25;25.95;;;5.20;99.90;;;;;;5059510;28;20113;-60
2022/11/20 06:04:39;;;;;;;42.55;24.50;;;5.30;99.90;;;;;;5059770;28;20053;-60
2022/11/20 06:07:06;;;;;;;46.63;26.35;;;5.30;99.90;;;;;;5058648;28;20480;-60
2022/11/20 06:09:32;;;;;;;47.08;25.50;;;5.30;99.90;;;;;;5042839;28;20047;-60
2022/11/20 06:11:58;;;;;;;43.38;24.77;;;5.10;99.90;;;;;;5058593;28;20296;-60
2022/11/20 06:14:24;;;;;;;45.45;25.50;;;5.10;99.90;;;;;;5059349;28;20048;-61
2022/11/20 06:16:49;;;;;;;42.05;24.30;;;5.00;99.90;;;;;;5041892;28;20033;-60
2022/11/20 06:19:15;;;;;;;41.50;24.95;;;4.90;99.90;;;;;;5058300;28;20033;-60
2022/11/20 06:21:41;;;;;;;44.10;25.23;;;4.80;99.90;;;;;;5058517;28;20021;-60
2022/11/20 06:24:09;;;;;;;46.00;25.15;;;4.50;99.90;;;;;;5058946;28;20029;-60
2022/11/20 06:26:35;;;;;;;40.67;24.48;;;4.40;99.90;;;;;;5059307;28;20112;-60
2022/11/20 06:29:00;;;;;;;43.80;25.50;;;4.40;99.90;;;;;;5059107;28;20183;-60
2022/11/20 06:31:26;;;;;;;45.90;25.00;;;4.70;99.90;;;;;;5059080;28;20391;-60
2022/11/20 06:33:53;;;;;;;45.97;24.98;;;4.60;99.90;;;;;;5058312;28;20048;-60
2022/11/20 06:36:21;;;;;;;44.30;24.27;;;4.70;99.90;;;;;;5058180;28;20033;-60
2022/11/20 06:38:47;;;;;;;43.97;24.38;;;4.70;99.90;;;;;;5058791;28;20037;-60
2022/11/20 06:41:16;;;;;;;44.58;24.63;;;4.70;99.90;;;;;;5058889;28;20067;-60
2022/11/20 06:43:42;;;;;;;46.88;26.15;;;4.80;99.90;;;;;;5058201;28;20084;-60
2022/11/20 06:46:13;;;;;;;44.25;26.67;;;4.90;99.90;;;;;;5041338;28;20056;-60
2022/11/20 06:48:39;;;;;;;44.47;25.35;;;4.80;99.90;;;;;;5058000;28;20389;-59
2022/11/20 06:51:06;;;;;;;48.05;25.65;;;4.50;99.90;;;;;;5058625;28;20327;-60
2022/11/20 06:53:32;;;;;;;46.08;24.92;;;4.50;99.90;;;;;;5058947;28;20394;-59
2022/11/20 06:55:59;;;;;;;47.40;26.25;;;4.60;99.90;;;;;;5059187;28;20120;-60
2022/11/20 06:58:27;;;;;;;44.55;24.63;;;4.60;99.90;;;;;;5058567;28;20068;-60
2022/11/20 07:00:57;;;;;;;44.65;25.95;;;4.60;99.90;;;;;;5056835;28;20075;-60
2022/11/20 07:03:23;;;;;;;44.85;25.00;;;4.40;99.90;;;;;;5057513;28;20037;-60
2022/11/20 07:05:48;;;;;;;44.95;25.45;;;4.50;99.90;;;;;;5058470;28;20071;-60
2022/11/20 07:08:14;;;;;;;43.33;24.55;;;4.30;99.90;;;;;;5057384;28;20405;-60
2022/11/20 07:10:40;;;;;;;46.83;25.67;;;4.60;99.90;;;;;;5058171;28;20065;-60
2022/11/20 07:13:06;;;;;;;44.58;25.08;;;4.70;99.90;;;;;;5058069;28;20385;-61
2022/11/20 07:15:33;;;;;;;47.05;27.10;;;4.80;99.90;;;;;;5058074;28;20045;-60
2022/11/20 07:18:00;;;;;;;43.78;24.35;;;4.90;99.90;;;;;;5057939;28;20068;-61
2022/11/20 07:20:26;;;;;;;47.60;26.58;;;5.00;99.90;;;;;;5058050;28;20036;-60
2022/11/20 07:22:56;;;;;;;42.38;24.80;;;5.10;99.90;;;;;;5057840;28;20040;-60
2022/11/20 07:25:27;;;;;;;45.22;25.63;;;5.10;99.90;;;;;;5057071;28;20032;-60
2022/11/20 07:27:56;;;;;;;40.17;23.40;;;5.20;99.90;;;;;;5057891;28;20037;-60
2022/11/20 07:30:22;;;;;;;41.75;23.42;;;5.20;99.90;;;;;;5057764;28;20269;-59
2022/11/20 07:32:51;;;;;;;42.17;24.60;;;5.20;99.90;;;;;;5057250;28;20036;-60
2022/11/20 07:35:16;;;;;;;42.13;24.30;;;5.10;99.90;;;;;;5057231;28;20308;-60
2022/11/20 07:37:42;;;;;;;41.67;24.75;;;5.20;99.90;;;;;;5057089;28;20040;-60
2022/11/20 07:40:08;;;;;;;40.28;23.40;;;5.20;99.90;;;;;;5056992;28;20052;-60
2022/11/20 07:42:34;;;;;;;42.72;24.85;;;5.30;99.90;;;;;;5056924;28;20036;-60
2022/11/20 07:45:01;;;;;;;43.53;24.13;;;5.50;99.90;;;;;;5040497;28;20032;-60
2022/11/20 07:47:26;;;;;;;40.22;24.40;;;5.50;99.90;;;;;;5056953;28;20079;-62
2022/11/20 07:49:52;;;;;;;40.95;24.38;;;5.60;99.90;;;;;;5056971;28;20104;-61
2022/11/20 07:52:18;;;;;;;40.55;23.60;;;5.60;99.90;;;;;;5057609;28;20029;-61
2022/11/20 07:54:44;;;;;;;45.03;24.75;;;5.60;99.90;;;;;;5056654;28;20478;-59
2022/11/20 07:57:10;;;;;;;40.42;24.23;;;5.50;99.90;;;;;;5040155;28;20031;-60
2022/11/20 07:59:36;;;;;;;44.53;24.38;;;5.50;99.90;;;;;;5056683;28;20029;-60
2022/11/20 08:02:02;;;;;;;42.67;24.52;;;5.50;99.90;;;;;;5056654;28;20031;-60
2022/11/20 08:04:28;;;;;;;45.45;25.48;;;5.60;99.90;;;;;;5057094;28;20049;-60
2022/11/20 08:06:53;;;;;;;43.72;24.70;;;5.80;99.90;;;;;;5057127;28;20029;-60
2022/11/20 08:09:19;;;;;;;43.10;23.90;;;5.70;99.90;;;;;;5057440;28;20040;-60
2022/11/20 08:14:29;;;;;;;41.22;23.63;;;5.50;99.90;;;;;;5057228;28;20301;-60
2022/11/20 08:16:55;;;;;;;38.90;21.63;;;5.50;99.90;;;;;;5057178;28;20033;-60
2022/11/20 08:19:21;;;;;;;42.85;24.27;;;5.60;99.90;;;;;;5056489;28;20072;-60
2022/11/20 08:21:47;;;;;;;40.53;23.42;;;5.60;99.90;;;;;;5057139;28;20064;-60
2022/11/20 08:24:12;;;;;;;45.05;24.92;;;5.80;99.90;;;;;;5057141;28;20116;-59
2022/11/20 08:26:39;;;;;;;38.13;22.65;;;6.00;99.90;;;;;;5057425;28;20309;-59
2022/11/20 08:29:05;;;;;;;42.40;23.60;;;6.00;99.90;;;;;;5057012;28;20109;-59
2022/11/20 08:31:32;;;;;;;40.05;22.90;;;6.00;99.90;;;;;;5057120;28;20028;-59
2022/11/20 08:33:58;;;;;;;42.33;22.90;;;6.20;99.90;;;;;;5056167;28;20029;-60
2022/11/20 08:36:24;;;;;;;41.17;23.42;;;6.20;99.90;;;;;;5056972;28;20040;-59
2022/11/20 08:38:52;;;;;;;40.58;23.85;;;6.20;99.90;;;;;;5057095;28;20296;-60
2022/11/20 08:41:24;;;;;;;40.30;23.90;;;6.20;99.90;;;;;;5057268;28;20036;-60
2022/11/20 08:44:01;;;;;;;28.25;16.05;;;6.20;99.90;;;;;;5056130;28;20025;-61
2022/11/20 08:46:39;;;;;;;44.88;23.08;;;6.30;99.90;;;;;;5056975;28;20398;-59
2022/11/20 08:49:06;;;;;;;40.95;23.27;;;6.30;99.90;;;;;;5056823;28;20024;-59
2022/11/20 08:51:33;;;;;;;44.83;23.40;;;6.30;99.90;;;;;;5056076;28;20270;-60
2022/11/20 08:53:58;;;;;;;44.63;22.50;;;6.20;99.90;;;;;;5055988;28;20391;-60
2022/11/20 08:56:24;;;;;;;46.15;23.08;;;6.20;99.90;;;;;;5040182;28;20107;-60
2022/11/20 08:58:52;;;;;;;40.85;23.77;;;6.20;99.90;;;;;;5055777;28;20029;-60
2022/11/20 09:01:19;;;;;;;40.92;22.25;;;6.20;99.90;;;;;;5056069;28;20033;-60
2022/11/20 09:03:45;;;;;;;41.92;23.08;;;6.40;99.90;;;;;;5055665;28;20110;-60
2022/11/20 09:06:11;;;;;;;42.38;23.63;;;6.50;99.90;;;;;;5039378;28;20033;-60
2022/11/20 09:08:37;;;;;;;43.05;24.08;;;6.40;99.90;;;;;;5055735;28;20170;-61
2022/11/20 09:11:04;;;;;;;42.47;23.63;;;6.50;99.90;;;;;;5056491;28;20041;-61
2022/11/20 09:13:30;;;;;;;42.67;23.40;;;6.60;99.90;;;;;;5056606;28;20045;-60
2022/11/20 09:15:58;;;;;;;43.75;24.45;;;6.60;99.90;;;;;;5055796;28;20083;-60
2022/11/20 09:18:25;;;;;;;41.88;22.77;;;6.60;99.90;;;;;;5056434;28;20029;-59
2022/11/20 09:20:51;;;;;;;42.60;23.75;;;6.60;99.90;;;;;;5057063;28;20056;-59
2022/11/20 09:23:17;;;;;;;44.25;24.48;;;6.70;99.90;;;;;;5055805;28;20029;-59
2022/11/20 09:25:43;;;;;;;47.28;24.13;;;6.90;99.90;;;;;;5059376;28;20036;-59
2022/11/20 09:28:09;;;;;;;45.72;24.45;;;7.00;99.90;;;;;;5059688;28;20040;-59
2022/11/20 09:30:35;;;;;;;45.70;24.08;;;6.80;99.90;;;;;;5059627;28;20408;-59
2022/11/20 09:33:03;;;;;;;49.05;24.13;;;6.80;99.90;;;;;;5059590;28;20029;-59
2022/11/20 09:35:29;;;;;;;44.53;22.92;;;6.90;99.90;;;;;;5060156;28;20044;-60
2022/11/20 09:37:55;;;;;;;44.90;24.52;;;6.90;99.90;;;;;;5059550;28;20033;-59
2022/11/20 09:40:24;;;;;;;45.72;23.98;;;6.90;99.90;;;;;;5060154;28;20032;-61
2022/11/20 09:43:11;;;;;;;45.22;24.02;;;7.00;99.90;;;;;;5060068;28;20143;-60
2022/11/20 09:45:42;;;;;;;46.47;24.60;;;6.90;99.90;;;;;;5060118;28;20040;-60
2022/11/20 09:48:14;;;;;;;49.17;24.77;;;7.00;99.90;;;;;;5059554;28;20033;-60
2022/11/20 09:50:55;;;;;;;43.08;22.90;;;6.90;99.90;;;;;;5059262;28;20036;-60
2022/11/20 09:53:51;;;;;;;48.73;23.80;;;6.70;99.90;;;;;;5059996;28;20083;-60
2022/11/20 09:56:19;;;;;;;44.10;23.95;;;6.60;99.90;;;;;;5034056;28;20140;-60
2022/11/20 09:58:51;;;;;;;52.78;24.00;;;6.50;99.90;;;;;;5042866;28;20036;-61
2022/11/20 10:01:19;;;;;;;53.83;23.98;;;6.60;99.90;;;;;;5059031;28;20114;-61
2022/11/20 10:03:50;;;;;;;50.55;23.83;;;6.80;99.90;;;;;;5059642;28;20273;-61
2022/11/20 10:06:20;;;;;;;48.90;24.50;;;7.00;99.90;;;;;;5059773;28;20301;-60
2022/11/20 10:08:54;;;;;;;52.17;25.38;;;7.20;99.90;;;;;;5059773;28;20043;-60
2022/11/20 10:11:29;;;;;;;56.67;26.10;;;7.30;99.90;;;;;;5060287;28;20108;-60
2022/11/20 10:14:00;;;;;;;59.97;25.38;;;7.10;99.90;;;;;;5059548;28;20036;-61
2022/11/20 10:16:47;;;;;;;56.20;25.67;;;6.80;99.90;;;;;;5060172;28;20448;-60
2022/11/20 10:19:37;;;;;;;60.42;28.23;;;6.80;99.90;;;;;;5058695;28;20090;-60
2022/11/20 10:22:19;;;;;;;61.13;26.30;;;7.00;99.90;;;;;;5059431;28;20124;-60
2022/11/20 10:25:03;;;;;;;59.27;25.30;;;6.90;99.90;;;;;;5059441;28;20357;-60
2022/11/20 10:27:51;;;;;;;64.55;26.25;;;7.10;99.90;;;;;;5059338;28;20029;-60
2022/11/20 10:30:21;;;;;;;63.78;26.98;;;7.20;99.90;;;;;;5059184;28;20043;-60
2022/11/20 10:33:06;;;;;;;64.38;27.92;;;7.30;99.90;;;;;;5059309;28;20029;-60
2022/11/20 10:35:44;;;;;;;64.88;27.48;;;7.30;99.90;;;;;;5059193;28;20311;-60
2022/11/20 10:38:19;;;;;;;62.45;27.23;;;7.50;99.90;;;;;;5059063;28;20064;-60
2022/11/20 10:41:24;;;;;;;64.35;27.15;;;7.60;99.90;;;;;;5059025;28;20029;-61
2022/11/20 10:43:40;;;;;;;63.92;28.20;;;7.50;99.90;;;;;;5058152;28;20029;-60
2022/11/20 10:46:18;;;;;;;64.05;26.40;;;7.60;99.90;;;;;;5059036;28;20300;-60
2022/11/20 10:48:45;;;;;;;68.40;27.65;;;7.50;99.90;;;;;;5058967;28;20036;-60
2022/11/20 10:51:37;;;;;;;64.95;27.95;;;7.70;99.90;;;;;;5058255;28;20041;-60
2022/11/20 10:54:06;;;;;;;62.38;27.35;;;7.70;99.90;;;;;;5058986;28;20051;-60
2022/11/20 10:56:51;;;;;;;66.75;28.95;;;7.90;99.90;;;;;;5041598;28;20048;-60
2022/11/20 10:59:45;;;;;;;65.78;28.33;;;8.00;99.90;;;;;;5057889;28;20040;-60
2022/11/20 11:02:23;;;;;;;63.65;26.75;;;8.30;99.90;;;;;;5058034;28;20025;-60
2022/11/20 11:04:54;;;;;;;65.07;27.55;;;8.10;99.90;;;;;;5058480;28;20037;-60
2022/11/20 11:07:30;;;;;;;63.50;27.13;;;8.10;99.90;;;;;;5058880;28;20323;-60
2022/11/20 11:09:57;;;;;;;65.95;27.20;;;8.20;99.90;;;;;;5058585;28;20029;-59
2022/11/20 11:12:25;;;;;;;59.83;27.40;;;8.30;99.90;;;;;;5058524;28;20293;-59
2022/11/20 11:14:57;;;;;;;65.10;27.70;;;8.30;99.90;;;;;;5058394;28;20036;-60
2022/11/20 11:17:27;;;;;;;60.22;27.05;;;8.20;99.90;;;;;;5057648;28;20040;-59
2022/11/20 11:20:23;;;;;;;61.50;27.92;;;8.20;99.90;;;;;;5058548;28;20334;-59
2022/11/20 11:22:52;;;;;;;58.45;27.02;;;8.30;99.90;;;;;;5058262;28;20029;-60
2022/11/20 11:25:20;;;;;;;63.30;27.35;;;8.40;99.90;;;;;;5058082;28;20033;-59
2022/11/20 11:27:48;;;;;;;56.25;25.13;;;8.50;99.90;;;;;;5058084;28;20385;-61
2022/11/20 11:30:19;;;;;;;61.85;26.20;;;8.70;99.90;;;;;;5057393;28;20052;-58
2022/11/20 11:32:45;;;;;;;53.75;25.30;;;9.00;99.90;;;;;;5057708;28;20387;-59
2022/11/20 11:35:24;;;;;;;56.15;26.05;;;9.10;99.90;;;;;;5057358;28;20143;-60
2022/11/20 11:37:53;;;;;;;54.92;25.70;;;8.90;99.90;;;;;;5058202;28;20363;-58
2022/11/20 11:40:21;;;;;;;56.83;25.25;;;9.10;99.90;;;;;;5057235;28;20025;-59
2022/11/20 11:43:02;;;;;;;52.10;23.83;;;9.30;99.90;;;;;;5057797;28;20102;-59
2022/11/20 11:45:29;;;;;;;50.28;23.30;;;9.40;99.90;;;;;;5057891;28;20068;-60
2022/11/20 11:47:58;;;;;;;51.03;24.42;;;9.50;99.90;;;;;;5056501;28;20041;-59
2022/11/20 11:50:28;;;;;;;53.88;24.20;;;9.60;99.90;;;;;;5057683;28;20040;-59
2022/11/20 11:53:14;;;;;;;47.75;23.40;;;9.50;99.90;;;;;;5057747;28;20111;-60
2022/11/20 11:55:49;;;;;;;50.28;23.05;;;9.50;99.90;;;;;;5057779;28;20033;-60
2022/11/20 11:58:30;;;;;;;48.35;23.05;;;9.60;99.90;;;;;;5057544;28;20291;-59
2022/11/20 12:01:27;;;;;;;52.35;24.48;;;9.60;99.90;;;;;;5056734;28;20044;-63
2022/11/20 12:04:40;;;;;;;53.22;22.27;;;9.70;99.90;;;;;;5057329;28;20408;-60
2022/11/20 12:07:36;;;;;;;46.87;21.53;;;9.90;99.90;;;;;;5036677;28;20048;-60
2022/11/20 12:10:03;;;;;;;48.33;22.40;;;9.70;99.90;;;;;;4996660;28;20359;-60
2022/11/20 12:12:41;;;;;;;44.25;21.83;;;9.70;99.90;;;;;;5052087;28;20045;-60
2022/11/20 12:15:14;;;;;;;44.28;21.80;;;9.80;99.90;;;;;;5057447;28;20104;-60
2022/11/20 12:17:40;;;;;;;41.85;20.23;;;9.80;99.90;;;;;;5057235;28;20021;-60
2022/11/20 12:20:15;;;;;;;38.67;19.67;;;9.80;99.90;;;;;;5056460;28;20079;-60
2022/11/20 12:23:06;;;;;;;43.80;21.35;;;9.80;99.90;;;;;;5023581;28;20037;-60
2022/11/20 12:25:36;;;;;;;44.58;21.77;;;9.80;99.90;;;;;;5057285;28;20389;-58
2022/11/20 12:28:07;;;;;;;41.50;20.70;;;9.60;99.90;;;;;;5057002;28;20033;-58
2022/11/20 12:30:48;;;;;;;39.33;20.63;;;9.50;99.90;;;;;;5056403;28;20037;-58
2022/11/20 12:33:39;;;;;;;40.50;20.17;;;9.50;99.90;;;;;;5056340;28;20093;-58
2022/11/20 12:36:19;;;;;;;40.28;19.65;;;9.60;99.90;;;;;;5056301;28;20037;-59
2022/11/20 12:39:08;;;;;;;40.72;18.52;;;9.40;99.90;;;;;;5055849;28;20025;-59
2022/11/20 12:48:10;;;;;;;21.30;11.13;;;8.60;99.90;;;;;;5057302;28;20025;-61
2022/11/20 12:50:36;;;;;;;18.48;8.40;;;8.50;99.90;;;;;;5056814;28;20029;-60
2022/11/20 12:53:31;;;;;;;17.25;9.07;;;8.40;99.90;;;;;;5056797;28;20032;-61
2022/11/20 12:56:19;;;;;;;12.88;6.05;;;8.40;99.90;;;;;;5056084;28;20029;-60
2022/11/20 12:59:05;;;;;;;6.15;3.95;;;8.30;99.90;;;;;;5056856;28;20288;-60
2022/11/20 13:01:40;;;;;;;7.28;4.05;;;8.20;99.90;;;;;;5060327;28;20036;-61
2022/11/20 13:04:36;;;;;;;6.38;4.10;;;8.10;99.90;;;;;;5061133;28;20059;-60
2022/11/20 13:07:13;;;;;;;10.85;5.30;;;8.10;99.90;;;;;;5061053;28;20040;-61